Time;durP1;ratioP1;P1;durP2;ratioP2;P2;SDS_P1;SDS_P2;PMS_P1;PMS_P2;Temp;Humidity;BMP_temperature;BMP_pressure;BME280_temperature;BME280_humidity;BME280_pressure;Samples;Min_cycle;Max_cycle;Signal;HPM_P1;HPM_P2
2022/05/14 00:01:00;;;;;;;;;;;11.20;99.90;;;;;;5023835;28;20042;-69
2022/05/14 00:03:28;;;;;;;12.93;5.70;;;11.20;99.90;;;;;;5021666;28;19928;-69
2022/05/14 00:05:54;;;;;;;11.32;6.07;;;11.10;99.90;;;;;;5022988;28;20041;-69
2022/05/14 00:08:22;;;;;;;12.82;6.10;;;11.10;99.90;;;;;;5007106;28;20038;-69
2022/05/14 00:13:38;;;;;;;15.25;6.70;;;11.10;99.90;;;;;;5009422;28;20853;-69
2022/05/14 00:16:05;;;;;;;11.25;5.97;;;11.10;99.90;;;;;;5019495;28;20300;-69
2022/05/14 00:18:32;;;;;;;14.38;6.03;;;11.10;99.90;;;;;;5018908;28;20496;-69
2022/05/14 00:20:58;;;;;;;11.45;6.30;;;11.10;99.90;;;;;;5021630;28;20508;-69
2022/05/14 00:23:24;;;;;;;12.90;6.35;;;11.00;99.90;;;;;;4989267;28;20794;-69
2022/05/14 00:25:51;;;;;;;12.02;5.68;;;11.00;99.90;;;;;;4988706;28;20060;-68
2022/05/14 00:28:17;;;;;;;12.60;6.05;;;11.00;99.90;;;;;;5006470;28;20057;-69
2022/05/14 00:30:43;;;;;;;11.18;5.55;;;11.00;99.90;;;;;;5006376;28;20053;-69
2022/05/14 00:33:10;;;;;;;17.17;6.03;;;11.00;99.90;;;;;;5002220;28;20172;-69
2022/05/14 00:35:37;;;;;;;10.77;4.78;;;11.00;99.90;;;;;;5020686;28;20037;-68
2022/05/14 00:38:03;;;;;;;14.02;5.90;;;11.00;99.90;;;;;;5022460;28;20056;-69
2022/05/14 00:40:33;;;;;;;9.20;5.35;;;11.00;99.90;;;;;;5022570;28;20041;-68
2022/05/14 00:42:59;;;;;;;9.48;5.03;;;11.00;99.90;;;;;;5021990;28;20121;-69
2022/05/14 00:45:27;;;;;;;13.02;5.15;;;11.00;99.90;;;;;;5022853;28;20140;-69
2022/05/14 00:47:55;;;;;;;11.73;5.72;;;11.00;99.90;;;;;;5017156;28;20053;-69
2022/05/14 00:50:41;;;;;;;10.15;5.30;;;11.00;99.90;;;;;;5020557;28;20100;-69
2022/05/14 00:53:12;;;;;;;11.55;5.70;;;11.00;99.90;;;;;;5021768;28;20041;-69
2022/05/14 00:55:40;;;;;;;10.55;5.03;;;11.00;99.90;;;;;;5021786;28;20068;-68
2022/05/14 00:58:08;;;;;;;12.32;4.93;;;11.00;99.90;;;;;;5006205;28;20042;-69
2022/05/14 01:00:36;;;;;;;11.50;5.07;;;11.00;99.90;;;;;;5006281;28;20179;-69
2022/05/14 01:03:02;;;;;;;13.18;4.97;;;11.10;99.90;;;;;;5021915;28;20111;-69
2022/05/14 01:05:28;;;;;;;12.20;5.47;;;11.10;99.90;;;;;;5006186;28;20045;-69
2022/05/14 01:07:55;;;;;;;12.23;6.05;;;11.10;99.90;;;;;;4989482;28;20159;-69
2022/05/14 01:10:26;;;;;;;11.02;5.80;;;11.20;99.90;;;;;;4990254;28;20061;-69
2022/05/14 01:12:55;;;;;;;;;;;11.20;99.90;;;;;;5006679;28;20061;-69
2022/05/14 01:15:24;;;;;;;10.60;4.80;;;11.20;99.90;;;;;;5021845;28;20104;-69
2022/05/14 01:17:51;;;;;;;16.05;5.90;;;11.20;99.90;;;;;;5023071;28;20064;-69
2022/05/14 01:20:18;;;;;;;13.77;5.05;;;11.20;99.90;;;;;;5006798;28;20500;-69
2022/05/14 01:23:04;;;;;;;10.07;4.72;;;11.20;99.90;;;;;;5006401;28;20330;-69
2022/05/14 01:28:44;;;;;;;10.50;5.20;;;11.20;99.90;;;;;;5024590;28;20049;-69
2022/05/14 01:31:10;;;;;;;10.27;4.80;;;11.20;99.90;;;;;;5009069;28;20107;-69
2022/05/14 01:33:36;;;;;;;12.48;5.18;;;11.20;99.90;;;;;;5009239;28;20045;-69
2022/05/14 01:36:05;;;;;;;12.25;4.95;;;11.20;99.90;;;;;;4993192;28;20459;-69
2022/05/14 01:38:32;;;;;;;11.50;5.40;;;11.20;99.90;;;;;;5009688;28;20038;-69
2022/05/14 01:40:58;;;;;;;10.23;5.22;;;11.20;99.90;;;;;;4993294;28;20053;-69
2022/05/14 01:43:23;;;;;;;15.77;5.28;;;11.20;99.90;;;;;;4993056;28;20518;-69
2022/05/14 01:45:49;;;;;;;14.20;5.78;;;11.20;99.90;;;;;;5009180;28;20057;-70
2022/05/14 01:48:15;;;;;;;15.43;6.10;;;11.20;99.90;;;;;;4992521;28;20045;-69
2022/05/14 01:50:41;;;;;;;13.77;6.30;;;11.10;99.90;;;;;;5025949;28;20045;-69
2022/05/14 01:53:08;;;;;;;9.98;5.32;;;11.10;99.90;;;;;;4992992;28;20435;-69
2022/05/14 01:55:34;;;;;;;12.77;5.20;;;11.10;99.90;;;;;;5024190;28;20042;-70
2022/05/14 01:58:00;;;;;;;11.23;5.00;;;11.10;99.90;;;;;;5007392;28;20558;-69
2022/05/14 02:00:26;;;;;;;9.52;4.78;;;11.00;99.90;;;;;;5006341;28;20487;-69
2022/05/14 02:02:53;;;;;;;9.63;4.93;;;11.00;99.90;;;;;;5005173;28;20560;-69
2022/05/14 02:05:19;;;;;;;11.13;5.28;;;11.00;99.90;;;;;;4991195;28;20045;-69
2022/05/14 02:07:45;;;;;;;8.93;5.55;;;11.00;99.90;;;;;;4974710;28;20105;-70
2022/05/14 02:10:11;;;;;;;10.40;5.13;;;11.00;99.90;;;;;;4991149;28;20064;-69
2022/05/14 02:12:37;;;;;;;11.38;6.00;;;11.00;99.90;;;;;;5023698;28;20049;-69
2022/05/14 02:15:04;;;;;;;11.52;6.25;;;10.90;99.90;;;;;;5023741;28;20045;-69
2022/05/14 02:17:30;;;;;;;14.00;6.53;;;10.90;99.90;;;;;;5005728;28;20048;-69
2022/05/14 02:19:56;;;;;;;11.15;5.53;;;10.80;99.90;;;;;;5006770;28;20159;-69
2022/05/14 02:22:22;;;;;;;13.68;5.57;;;10.70;99.90;;;;;;5002080;28;20131;-69
2022/05/14 02:24:48;;;;;;;14.57;6.28;;;10.70;99.90;;;;;;5007878;28;20081;-69
2022/05/14 02:27:14;;;;;;;15.40;6.90;;;10.70;99.90;;;;;;4990972;28;20592;-69
2022/05/14 02:29:53;;;;;;;12.63;6.00;;;10.60;99.90;;;;;;5008156;28;20062;-69
2022/05/14 02:32:21;;;;;;;13.65;5.65;;;10.60;99.90;;;;;;5007449;28;20056;-69
2022/05/14 02:34:47;;;;;;;10.32;4.82;;;10.50;99.90;;;;;;4991589;28;20041;-69
2022/05/14 02:37:17;;;;;;;13.93;6.90;;;10.50;99.90;;;;;;5024150;28;20170;-69
2022/05/14 02:39:43;;;;;;;15.52;6.35;;;10.40;99.90;;;;;;5024276;28;20049;-69
2022/05/14 02:42:09;;;;;;;12.20;5.57;;;10.40;99.90;;;;;;5024041;28;20776;-69
2022/05/14 02:44:35;;;;;;;12.25;5.68;;;10.40;99.90;;;;;;4990973;28;20048;-69
2022/05/14 02:47:01;;;;;;;12.35;5.93;;;10.30;99.90;;;;;;5005773;28;20051;-69
2022/05/14 02:49:27;;;;;;;14.07;5.68;;;10.30;99.90;;;;;;5007446;28;20049;-69
2022/05/14 02:51:53;;;;;;;11.65;5.22;;;10.30;99.90;;;;;;5023792;28;20053;-69
2022/05/14 02:54:19;;;;;;;13.60;6.97;;;10.30;99.90;;;;;;4989210;28;20411;-69
2022/05/14 02:56:44;;;;;;;14.48;6.63;;;10.30;99.90;;;;;;5023714;28;20044;-69
2022/05/14 02:59:10;;;;;;;13.27;6.28;;;10.30;99.90;;;;;;5023061;28;20063;-69
2022/05/14 03:01:47;;;;;;;14.70;6.95;;;10.20;99.90;;;;;;5002559;28;20084;-69
2022/05/14 03:04:15;;;;;;;20.30;9.00;;;10.20;99.90;;;;;;5006882;28;20046;-69
2022/05/14 03:06:41;;;;;;;16.65;6.72;;;10.10;99.90;;;;;;5007207;28;20072;-69
2022/05/14 03:09:06;;;;;;;12.77;6.28;;;10.00;99.90;;;;;;5006176;28;20475;-69
2022/05/14 03:11:32;;;;;;;11.80;5.97;;;10.00;99.90;;;;;;5023037;28;20048;-69
2022/05/14 03:13:58;;;;;;;12.80;6.10;;;10.00;99.90;;;;;;4973717;28;20041;-68
2022/05/14 03:16:24;;;;;;;14.00;6.70;;;10.00;99.90;;;;;;4973900;28;20087;-69
2022/05/14 03:18:49;;;;;;;22.33;8.25;;;10.00;99.90;;;;;;5022563;28;20635;-69
2022/05/14 03:21:15;;;;;;;19.40;7.95;;;10.00;99.90;;;;;;5006306;28;20099;-68
2022/05/14 03:23:41;;;;;;;19.33;7.70;;;10.00;99.90;;;;;;5022759;28;20083;-69
2022/05/14 03:26:07;;;;;;;19.65;9.00;;;10.00;99.90;;;;;;5020445;28;20049;-68
2022/05/14 03:28:32;;;;;;;15.73;7.13;;;10.00;99.90;;;;;;5022457;28;20041;-69
2022/05/14 03:30:59;;;;;;;17.17;6.80;;;9.90;99.90;;;;;;5022823;28;20132;-68
2022/05/14 03:33:25;;;;;;;23.92;10.18;;;9.90;99.90;;;;;;4989992;28;20201;-69
2022/05/14 03:35:51;;;;;;;24.55;11.57;;;9.90;99.90;;;;;;5022877;28;20073;-69
2022/05/14 03:38:16;;;;;;;24.80;10.93;;;9.80;99.90;;;;;;4989891;28;20140;-69
2022/05/14 03:40:42;;;;;;;22.05;10.95;;;9.80;99.90;;;;;;5020586;28;20486;-68
2022/05/14 03:43:08;;;;;;;17.30;8.05;;;9.80;99.90;;;;;;5005460;28;20041;-68
2022/05/14 03:45:34;;;;;;;19.45;9.10;;;9.80;99.90;;;;;;5022619;28;20049;-68
2022/05/14 03:48:00;;;;;;;19.17;9.38;;;9.70;99.90;;;;;;5003344;28;20103;-69
2022/05/14 03:50:26;;;;;;;20.25;9.85;;;9.80;99.90;;;;;;5005792;28;20053;-68
2022/05/14 03:52:52;;;;;;;20.15;9.38;;;9.70;99.90;;;;;;5021573;28;20045;-69
2022/05/14 03:55:17;;;;;;;18.17;8.77;;;9.80;99.90;;;;;;5005738;28;20068;-69
2022/05/14 03:57:43;;;;;;;28.83;11.98;;;9.80;99.90;;;;;;5022656;28;20057;-69
2022/05/14 04:00:11;;;;;;;24.77;10.85;;;9.80;99.90;;;;;;5005394;28;20607;-69
2022/05/14 04:02:37;;;;;;;31.52;14.35;;;9.80;99.90;;;;;;5019426;28;20041;-69
2022/05/14 04:05:03;;;;;;;30.40;13.38;;;9.80;99.90;;;;;;5022684;28;20071;-68
2022/05/14 04:07:33;;;;;;;22.40;11.30;;;9.80;99.90;;;;;;5005988;28;20060;-68
2022/05/14 04:09:59;;;;;;;28.48;12.27;;;9.80;99.90;;;;;;5006716;28;20411;-68
2022/05/14 04:12:27;;;;;;;22.77;10.82;;;9.80;99.90;;;;;;5022069;28;20049;-68
2022/05/14 04:14:53;;;;;;;18.45;10.27;;;9.80;99.90;;;;;;4990130;28;20055;-68
2022/05/14 04:17:19;;;;;;;22.38;12.45;;;9.80;99.90;;;;;;5019382;28;20045;-68
2022/05/14 04:19:44;;;;;;;24.38;12.70;;;9.90;99.90;;;;;;4989561;28;20919;-70
2022/05/14 04:22:10;;;;;;;25.25;12.50;;;9.90;99.90;;;;;;5005396;28;20795;-70
2022/05/14 04:24:36;;;;;;;26.42;12.80;;;10.00;99.90;;;;;;5005721;28;20141;-67
2022/05/14 04:27:03;;;;;;;27.05;13.07;;;10.00;99.90;;;;;;5021795;28;20504;-68
2022/05/14 04:29:28;;;;;;;36.22;15.85;;;10.10;99.90;;;;;;4988965;28;20080;-68
2022/05/14 04:31:54;;;;;;;31.20;13.13;;;10.10;99.90;;;;;;5005787;28;20154;-67
2022/05/14 04:34:20;;;;;;;28.40;13.65;;;10.20;99.90;;;;;;4988643;28;20037;-67
2022/05/14 04:36:46;;;;;;;37.50;14.95;;;10.20;99.90;;;;;;4989625;28;20097;-68
2022/05/14 04:39:12;;;;;;;28.08;12.48;;;10.20;99.90;;;;;;4972728;28;20484;-67
2022/05/14 04:41:37;;;;;;;26.48;13.70;;;10.30;99.90;;;;;;5022036;28;20044;-68
2022/05/14 04:44:04;;;;;;;27.85;15.05;;;10.40;99.90;;;;;;5005265;28;20355;-68
2022/05/14 04:46:30;;;;;;;29.35;13.05;;;10.40;99.90;;;;;;5020098;28;20068;-67
2022/05/14 04:48:56;;;;;;;26.98;14.43;;;10.40;99.90;;;;;;5005394;28;20049;-69
2022/05/14 04:51:22;;;;;;;32.40;15.02;;;10.40;99.90;;;;;;5021716;28;20079;-69
2022/05/14 04:53:47;;;;;;;31.40;14.18;;;10.50;99.90;;;;;;5005190;28;20443;-69
2022/05/14 04:56:16;;;;;;;29.20;15.48;;;10.60;99.90;;;;;;5005066;28;20041;-68
2022/05/14 04:58:42;;;;;;;31.17;16.42;;;10.60;99.90;;;;;;5005718;28;20132;-68
2022/05/14 05:01:08;;;;;;;27.40;14.20;;;10.60;99.90;;;;;;4988118;28;20040;-68
2022/05/14 05:03:33;;;;;;;26.42;14.23;;;10.70;99.90;;;;;;5006818;28;20041;-68
2022/05/14 05:06:00;;;;;;;33.67;16.08;;;10.70;99.90;;;;;;5025654;28;20057;-68
2022/05/14 05:08:29;;;;;;;38.90;17.38;;;10.80;99.90;;;;;;5025027;28;20148;-68
2022/05/14 05:10:55;;;;;;;35.65;17.35;;;10.80;99.90;;;;;;5008794;28;20053;-68
2022/05/14 05:13:24;;;;;;;32.03;16.63;;;10.90;99.90;;;;;;5009085;28;20063;-68
2022/05/14 05:15:51;;;;;;;35.97;17.98;;;11.00;99.90;;;;;;5022694;28;20057;-68
2022/05/14 05:18:17;;;;;;;33.33;16.70;;;11.00;99.90;;;;;;5009050;28;20064;-68
2022/05/14 05:20:44;;;;;;;38.00;17.73;;;11.10;99.90;;;;;;5025812;28;20133;-68
2022/05/14 05:23:16;;;;;;;30.55;16.75;;;11.20;99.90;;;;;;5023091;28;20591;-68
2022/05/14 05:25:42;;;;;;;36.67;19.05;;;11.30;99.90;;;;;;5002168;28;20046;-68
2022/05/14 05:28:08;;;;;;;33.72;17.08;;;11.30;99.90;;;;;;5020539;28;20045;-69
2022/05/14 05:30:34;;;;;;;44.25;18.40;;;11.40;99.90;;;;;;5003159;28;20121;-68
2022/05/14 05:33:00;;;;;;;38.58;18.45;;;11.40;99.90;;;;;;4990239;28;20119;-68
2022/05/14 05:35:27;;;;;;;32.50;15.80;;;11.50;99.90;;;;;;5007339;28;20119;-69
2022/05/14 05:37:53;;;;;;;30.67;14.63;;;11.60;99.90;;;;;;5003466;28;20046;-69
2022/05/14 05:40:19;;;;;;;31.48;15.35;;;11.70;99.90;;;;;;5020412;28;20063;-68
2022/05/14 05:42:45;;;;;;;30.23;15.88;;;11.70;99.90;;;;;;4990459;28;20053;-69
2022/05/14 05:45:13;;;;;;;29.98;15.38;;;11.80;99.90;;;;;;4989988;28;20080;-69
2022/05/14 05:47:39;;;;;;;35.63;15.88;;;11.90;99.90;;;;;;5003662;28;20084;-69
2022/05/14 05:50:06;;;;;;;37.03;15.43;;;12.00;99.90;;;;;;5002232;28;20128;-69
2022/05/14 05:52:32;;;;;;;33.83;14.18;;;12.00;99.90;;;;;;5003256;28;20033;-69
2022/05/14 05:57:44;;;;;;;28.33;13.98;;;12.20;99.90;;;;;;4993858;28;20046;-69
2022/05/14 06:00:22;;;;;;;27.98;13.40;;;12.20;99.90;;;;;;5005830;28;20054;-69
2022/05/14 06:02:48;;;;;;;28.77;14.70;;;12.20;99.90;;;;;;4990584;28;20161;-69
2022/05/14 06:05:14;;;;;;;29.48;13.57;;;12.30;99.90;;;;;;5005186;28;20140;-69
2022/05/14 06:07:40;;;;;;;31.40;13.82;;;12.40;99.90;;;;;;5024994;28;20061;-69
2022/05/14 06:10:10;;;;;;;30.02;14.20;;;12.50;99.90;;;;;;4990511;28;20049;-69
2022/05/14 06:12:38;;;;;;;33.33;14.40;;;12.50;99.90;;;;;;5019363;28;20041;-69
2022/05/14 06:15:06;;;;;;;31.55;13.00;;;12.60;99.90;;;;;;5017240;28;20388;-69
2022/05/14 06:17:32;;;;;;;30.23;12.73;;;12.70;99.90;;;;;;5005715;28;20034;-69
2022/05/14 06:19:58;;;;;;;31.58;12.45;;;12.80;99.90;;;;;;5003653;28;20092;-70
2022/05/14 06:22:23;;;;;;;30.08;11.07;;;12.80;99.90;;;;;;4987402;28;20034;-69
2022/05/14 06:24:49;;;;;;;35.67;12.60;;;12.90;99.90;;;;;;5036449;28;20438;-69
2022/05/14 06:27:15;;;;;;;27.38;9.98;;;13.00;99.90;;;;;;5016380;28;20056;-69
2022/05/14 06:29:41;;;;;;;30.20;10.05;;;13.20;99.90;;;;;;5013591;28;20133;-69
2022/05/14 06:32:07;;;;;;;25.30;8.55;;;13.30;99.90;;;;;;4999234;28;20049;-68
2022/05/14 06:34:33;;;;;;;25.77;9.18;;;13.50;99.90;;;;;;4985888;28;20479;-69
2022/05/14 06:36:58;;;;;;;25.75;8.55;;;13.60;99.90;;;;;;5005349;28;20107;-69
2022/05/14 06:39:27;;;;;;;24.65;7.38;;;13.80;99.90;;;;;;5005676;28;20049;-69
2022/05/14 06:41:52;;;;;;;24.80;7.50;;;14.00;99.90;;;;;;5004019;28;20068;-69
2022/05/14 06:44:18;;;;;;;25.95;7.38;;;14.20;99.90;;;;;;5001618;28;20041;-69
2022/05/14 06:46:44;;;;;;;24.83;7.03;;;14.20;99.90;;;;;;4988540;28;20053;-69
2022/05/14 06:49:12;;;;;;;21.23;6.75;;;14.40;99.90;;;;;;5022212;28;20048;-69
2022/05/14 06:51:39;;;;;;;25.83;7.07;;;14.50;99.90;;;;;;5003310;28;20132;-69
2022/05/14 06:54:10;;;;;;;22.42;6.78;;;14.60;99.90;;;;;;5014713;28;20157;-70
2022/05/14 06:56:40;;;;;;;24.30;5.90;;;14.70;99.90;;;;;;5000035;28;20057;-70
2022/05/14 06:59:06;;;;;;;18.73;5.80;;;14.80;99.90;;;;;;5017818;28;20128;-69
2022/05/14 07:01:32;;;;;;;21.45;6.22;;;14.90;99.90;;;;;;4983917;28;20128;-70
2022/05/14 07:06:48;;;;;;;20.52;6.30;;;15.10;99.90;;;;;;5018139;28;20060;-69
2022/05/14 07:09:22;;;;;;;22.85;6.55;;;15.20;99.90;;;;;;5010042;28;20049;-69
2022/05/14 07:11:51;;;;;;;17.70;5.20;;;15.30;99.90;;;;;;5003261;28;20038;-70
2022/05/14 07:14:18;;;;;;;20.92;5.68;;;15.50;99.90;;;;;;4998323;28;20038;-69
2022/05/14 07:16:45;;;;;;;19.17;5.53;;;15.50;99.90;;;;;;4994857;28;20033;-69
2022/05/14 07:19:11;;;;;;;17.73;5.13;;;15.60;99.90;;;;;;4981203;28;20050;-69
2022/05/14 07:21:40;;;;;;;20.98;5.25;;;15.70;99.90;;;;;;4997046;28;20042;-69
2022/05/14 07:24:08;;;;;;;16.90;5.05;;;15.80;99.90;;;;;;4981095;28;21456;-69
2022/05/14 07:26:36;;;;;;;19.25;5.65;;;15.90;99.90;;;;;;4995278;28;20049;-69
2022/05/14 07:29:06;;;;;;;23.10;5.75;;;16.00;99.90;;;;;;5000910;28;20049;-69
2022/05/14 07:31:31;;;;;;;;;;;16.00;99.90;;;;;;5002798;28;20046;-70
2022/05/14 07:33:58;;;;;;;18.48;5.97;;;16.10;99.90;;;;;;4986427;28;19972;-70
2022/05/14 07:36:25;;;;;;;17.83;5.05;;;16.20;99.90;;;;;;4997511;28;20045;-69
2022/05/14 07:38:54;;;;;;;19.48;6.22;;;16.40;99.90;;;;;;5001453;28;20528;-69
2022/05/14 07:41:20;;;;;;;22.48;6.10;;;16.50;99.90;;;;;;4996361;28;20041;-70
2022/05/14 07:43:50;;;;;;;19.38;5.35;;;16.60;99.90;;;;;;4997898;28;20654;-70
2022/05/14 07:46:23;;;;;;;18.70;6.10;;;16.80;99.90;;;;;;4997662;28;20408;-70
2022/05/14 07:48:50;;;;;;;20.05;6.40;;;16.90;99.90;;;;;;4985857;28;20057;-70
2022/05/14 07:51:17;;;;;;;19.33;5.50;;;17.00;99.90;;;;;;5002946;28;20056;-70
2022/05/14 07:53:42;;;;;;;16.63;5.68;;;17.10;99.90;;;;;;4996456;28;20045;-72
2022/05/14 07:56:09;;;;;;;18.17;5.35;;;17.10;99.90;;;;;;4997144;28;20053;-72
2022/05/14 07:58:39;;;;;;;19.15;5.63;;;17.20;99.90;;;;;;4996183;28;20285;-72
2022/05/14 08:01:06;;;;;;;17.25;5.25;;;17.40;99.90;;;;;;4998009;28;20084;-72
2022/05/14 08:03:32;;;;;;;20.33;5.75;;;17.40;99.90;;;;;;5002344;28;20049;-72
2022/05/14 08:05:58;;;;;;;18.55;4.80;;;17.40;99.90;;;;;;4985843;28;20053;-72
2022/05/14 08:08:25;;;;;;;18.05;5.53;;;17.50;99.90;;;;;;5010334;28;20111;-72
2022/05/14 08:10:52;;;;;;;22.23;5.72;;;17.70;99.90;;;;;;5038425;28;20127;-69
2022/05/14 08:13:19;;;;;;;18.50;5.10;;;17.80;99.90;;;;;;5018919;28;20099;-69
2022/05/14 08:15:47;;;;;;;19.83;5.50;;;18.00;99.90;;;;;;5016731;28;20060;-69
2022/05/14 08:18:14;;;;;;;19.98;5.70;;;18.00;99.90;;;;;;5005239;28;20784;-70
2022/05/14 08:20:40;;;;;;;19.92;5.35;;;17.90;99.90;;;;;;5002547;28;20141;-70
2022/05/14 08:25:57;;;;;;;21.13;5.60;;;18.10;99.90;;;;;;5013262;28;20058;-70
2022/05/14 08:28:23;;;;;;;19.40;5.10;;;18.20;99.90;;;;;;4999729;28;20048;-70
2022/05/14 08:30:48;;;;;;;14.13;5.75;;;18.20;99.90;;;;;;5005512;28;20045;-69
2022/05/14 08:33:14;;;;;;;20.58;5.30;;;18.10;99.90;;;;;;5004334;28;20096;-69
2022/05/14 08:35:41;;;;;;;19.13;5.25;;;18.20;99.90;;;;;;4989676;28;20052;-70
2022/05/14 08:38:11;;;;;;;17.80;5.57;;;18.30;99.90;;;;;;5004986;28;20037;-69
2022/05/14 08:40:41;;;;;;;18.85;5.18;;;18.30;99.90;;;;;;4989190;28;20436;-70
2022/05/14 08:43:17;;;;;;;20.65;5.22;;;18.30;99.90;;;;;;5005830;28;20139;-69
2022/05/14 08:45:46;;;;;;;22.83;4.70;;;18.30;99.90;;;;;;5005260;28;20122;-70
2022/05/14 08:48:25;;;;;;;19.55;5.78;;;18.60;99.90;;;;;;4989000;28;20040;-70
2022/05/14 08:51:18;;;;;;;18.17;5.15;;;18.80;99.90;;;;;;5019902;28;20037;-70
2022/05/14 08:53:47;;;;;;;18.17;5.00;;;18.90;99.90;;;;;;5017297;28;20498;-69
2022/05/14 08:56:22;;;;;;;16.47;5.03;;;18.90;99.90;;;;;;5000001;28;20593;-70
2022/05/14 08:58:50;;;;;;;18.80;5.05;;;18.90;99.90;;;;;;5003964;28;20053;-70
2022/05/14 09:01:21;;;;;;;19.23;4.38;;;18.90;99.90;;;;;;5003279;28;20088;-72
2022/05/14 09:03:47;;;;;;;20.52;5.13;;;19.10;99.90;;;;;;5017918;28;20134;-72
2022/05/14 09:06:12;;;;;;;21.40;5.22;;;19.10;99.90;;;;;;5020486;28;20049;-72
2022/05/14 09:08:40;;;;;;;16.92;4.53;;;19.10;99.90;;;;;;5019432;28;20124;-74
2022/05/14 09:11:17;;;;;;;17.85;4.95;;;18.90;99.90;;;;;;5024711;28;20053;-73
2022/05/14 09:14:01;;;;;;;20.27;5.28;;;18.80;99.90;;;;;;5021257;28;20041;-73
2022/05/14 09:16:36;;;;;;;16.33;4.38;;;18.60;99.90;;;;;;5021765;28;20047;-72
2022/05/14 09:19:16;;;;;;;16.90;4.85;;;18.40;99.90;;;;;;5007453;28;20072;-69
2022/05/14 09:21:57;;;;;;;19.63;4.63;;;18.50;99.90;;;;;;5016384;28;20049;-70
2022/05/14 09:24:28;;;;;;;20.95;5.18;;;18.70;99.90;;;;;;5024270;28;20049;-70
2022/05/14 09:27:07;;;;;;;19.88;5.35;;;18.80;99.90;;;;;;5055076;28;20075;-70
2022/05/14 09:29:38;;;;;;;16.75;4.70;;;18.80;99.90;;;;;;5023942;28;20507;-70
2022/05/14 09:32:12;;;;;;;16.98;4.47;;;18.90;99.90;;;;;;5020948;28;20056;-70
2022/05/14 09:34:38;;;;;;;18.63;5.07;;;18.90;99.90;;;;;;5006594;28;20048;-70
2022/05/14 09:37:16;;;;;;;18.58;4.75;;;18.80;99.90;;;;;;5006690;28;20435;-69
2022/05/14 09:39:42;;;;;;;19.05;4.85;;;18.70;99.90;;;;;;5024815;28;20529;-70
2022/05/14 09:42:25;;;;;;;21.35;5.38;;;18.50;99.90;;;;;;5024346;28;20048;-70
2022/05/14 09:44:53;;;;;;;18.17;4.57;;;18.60;99.90;;;;;;5021007;28;20056;-70
2022/05/14 09:47:30;;;;;;;15.23;4.60;;;18.70;99.90;;;;;;5004366;28;20041;-70
2022/05/14 09:50:03;;;;;;;15.82;4.22;;;18.90;99.90;;;;;;5019492;28;20188;-70
2022/05/14 09:52:32;;;;;;;19.10;5.07;;;18.90;99.90;;;;;;5006147;28;20045;-70
2022/05/14 09:55:03;;;;;;;22.13;4.85;;;18.80;99.90;;;;;;5009018;28;20563;-69
2022/05/14 09:57:41;;;;;;;17.67;4.68;;;18.70;99.90;;;;;;5002514;28;20124;-70
2022/05/14 10:00:22;;;;;;;23.33;5.63;;;18.60;99.90;;;;;;5010061;28;20047;-69
2022/05/14 10:03:15;;;;;;;19.90;4.57;;;18.50;99.90;;;;;;5001638;28;20069;-69
2022/05/14 10:06:22;;;;;;;20.08;4.80;;;18.70;99.90;;;;;;5030075;28;20106;-69
2022/05/14 10:08:51;;;;;;;16.00;5.00;;;18.80;99.90;;;;;;5002481;28;20061;-70
2022/05/14 10:11:35;;;;;;;17.50;4.82;;;18.80;99.90;;;;;;5024794;28;20091;-70
2022/05/14 10:14:18;;;;;;;16.52;4.60;;;18.80;99.90;;;;;;5002263;28;20041;-69
2022/05/14 10:17:02;;;;;;;17.35;5.13;;;19.10;99.40;;;;;;5008759;28;20802;-70
2022/05/14 10:20:00;;;;;;;16.98;5.03;;;19.40;99.90;;;;;;4992642;28;20474;-70
2022/05/14 10:22:26;;;;;;;19.38;4.75;;;19.80;99.90;;;;;;5025524;28;20041;-70
2022/05/14 10:28:03;;;;;;;16.48;4.53;;;20.40;99.10;;;;;;5027083;28;20052;-70
2022/05/14 10:30:38;;;;;;;18.23;4.65;;;20.60;96.90;;;;;;5014116;28;20041;-70
2022/05/14 10:33:07;;;;;;;16.85;4.32;;;20.80;98.30;;;;;;5017402;28;20131;-70
2022/05/14 10:35:54;;;;;;;18.00;4.70;;;20.80;95.80;;;;;;5011091;28;20048;-70
2022/05/14 10:38:31;;;;;;;14.13;4.13;;;20.50;94.70;;;;;;5016564;28;20064;-70
2022/05/14 10:41:07;;;;;;;16.38;4.13;;;20.20;94.90;;;;;;4991924;28;20339;-71
2022/05/14 10:43:44;;;;;;;15.98;4.38;;;19.90;95.30;;;;;;5016892;28;20073;-70
2022/05/14 10:46:13;;;;;;;18.98;4.10;;;19.90;97.50;;;;;;5022353;28;20074;-69
2022/05/14 10:48:45;;;;;;;15.93;4.75;;;20.00;96.70;;;;;;4995640;28;20041;-69
2022/05/14 10:51:20;;;;;;;17.98;4.60;;;20.00;94.20;;;;;;5018043;28;20053;-69
2022/05/14 10:53:46;;;;;;;16.42;4.43;;;20.20;94.20;;;;;;5002246;28;20052;-69
2022/05/14 10:56:37;;;;;;;15.30;4.43;;;20.30;94.00;;;;;;5017874;28;20061;-69
2022/05/14 10:59:10;;;;;;;14.27;4.40;;;20.40;92.60;;;;;;5006621;28;20506;-70
2022/05/14 11:01:54;;;;;;;19.40;4.93;;;20.60;93.10;;;;;;5010701;28;20156;-70
2022/05/14 11:04:33;;;;;;;18.35;4.82;;;20.90;95.80;;;;;;5030581;28;20045;-70
2022/05/14 11:07:03;;;;;;;17.88;4.18;;;21.30;93.20;;;;;;5018722;28;20052;-73
2022/05/14 11:09:37;;;;;;;13.98;3.97;;;21.60;87.80;;;;;;5016935;28;20053;-72
2022/05/14 11:12:19;;;;;;;19.25;4.75;;;21.80;81.50;;;;;;5029673;28;20045;-72
2022/05/14 11:14:57;;;;;;;14.60;4.10;;;21.90;69.10;;;;;;5031057;28;20038;-73
2022/05/14 11:17:27;;;;;;;12.25;3.97;;;21.80;70.90;;;;;;5002224;28;20402;-73
2022/05/14 11:20:02;;;;;;;15.68;4.18;;;21.60;73.00;;;;;;4996876;28;20110;-72
2022/05/14 11:22:34;;;;;;;20.98;4.88;;;21.30;73.70;;;;;;5009669;28;20442;-73
2022/05/14 11:25:11;;;;;;;16.90;3.90;;;21.20;75.30;;;;;;5007790;28;20510;-72
2022/05/14 11:27:38;;;;;;;18.77;4.13;;;21.30;84.00;;;;;;5009458;28;20049;-72
2022/05/14 11:30:08;;;;;;;18.67;4.68;;;21.60;86.40;;;;;;4990743;28;20049;-72
2022/05/14 11:32:53;;;;;;;16.30;4.10;;;22.00;80.70;;;;;;5022784;28;20131;-72
2022/05/14 11:35:20;;;;;;;14.52;3.38;;;22.30;78.80;;;;;;4992657;28;20048;-69
2022/05/14 11:37:51;;;;;;;13.73;4.18;;;22.40;73.00;;;;;;5010856;28;20049;-71
2022/05/14 11:40:23;;;;;;;14.70;3.78;;;22.10;70.70;;;;;;5026076;28;20401;-71
2022/05/14 11:43:25;;;;;;;14.57;3.97;;;21.80;72.60;;;;;;5026686;28;20041;-70
2022/05/14 11:46:12;;;;;;;19.42;4.78;;;21.40;70.40;;;;;;5026925;28;20569;-70
2022/05/14 11:48:53;;;;;;;18.25;4.85;;;21.10;69.20;;;;;;5018038;28;20453;-71
2022/05/14 11:51:34;;;;;;;19.48;4.60;;;20.80;72.30;;;;;;5033734;28;20041;-70
2022/05/14 11:54:20;;;;;;;16.85;4.28;;;20.70;75.10;;;;;;5027713;28;20057;-71
2022/05/14 11:56:55;;;;;;;15.52;4.78;;;20.90;78.10;;;;;;4997297;28;20037;-71
2022/05/14 11:59:49;;;;;;;15.70;3.88;;;21.30;77.80;;;;;;5022251;28;20387;-71
2022/05/14 12:02:49;;;;;;;17.50;4.50;;;21.70;79.20;;;;;;5032146;28;20072;-71
2022/05/14 12:05:37;;;;;;;21.33;4.68;;;21.90;73.70;;;;;;5024231;28;20102;-71
2022/05/14 12:09:00;;;;;;;16.77;4.35;;;22.00;76.50;;;;;;5026957;28;20128;-70
2022/05/14 12:11:42;;;;;;;13.07;3.60;;;21.90;67.20;;;;;;4985811;28;20507;-71
2022/05/14 12:14:13;;;;;;;15.57;3.65;;;21.50;69.40;;;;;;4980390;28;20700;-72
2022/05/14 12:16:47;;;;;;;17.35;3.90;;;21.30;70.60;;;;;;4998167;28;20065;-70
2022/05/14 12:19:25;;;;;;;21.48;6.05;;;21.10;70.20;;;;;;5008099;28;20045;-71
2022/05/14 12:21:57;;;;;;;18.70;4.80;;;21.10;72.70;;;;;;5037885;28;20043;-70
2022/05/14 12:24:30;;;;;;;20.52;5.20;;;21.20;76.80;;;;;;5009836;28;20053;-70
2022/05/14 12:26:56;;;;;;;15.23;4.22;;;21.50;71.70;;;;;;5009966;28;20124;-70
2022/05/14 12:29:31;;;;;;;14.95;4.57;;;21.70;68.70;;;;;;4991433;28;20052;-69
2022/05/14 12:34:56;;;;;;;16.25;3.92;;;21.70;65.50;;;;;;5009631;28;20171;-71
2022/05/14 12:37:36;;;;;;;17.90;4.78;;;21.60;65.50;;;;;;5005856;28;20204;-71
2022/05/14 12:40:03;;;;;;;14.10;4.00;;;21.30;62.10;;;;;;5047653;28;20645;-71
2022/05/14 12:42:36;;;;;;;17.27;3.70;;;21.00;67.10;;;;;;5026541;28;20087;-72
2022/05/14 12:45:03;;;;;;;17.30;4.65;;;20.80;69.20;;;;;;5026268;28;20098;-72
2022/05/14 12:47:32;;;;;;;17.60;4.47;;;20.70;71.10;;;;;;5010253;28;20078;-71
2022/05/14 12:49:58;;;;;;;15.35;4.70;;;20.60;67.30;;;;;;5025549;28;20053;-72
2022/05/14 12:52:32;;;;;;;16.30;4.70;;;20.60;67.80;;;;;;5004746;28;20195;-72
2022/05/14 12:55:14;;;;;;;18.98;5.07;;;20.60;70.00;;;;;;5005726;28;20499;-73
2022/05/14 12:57:46;;;;;;;14.02;4.32;;;20.90;73.10;;;;;;5008402;28;20545;-76
2022/05/14 13:00:15;;;;;;;17.98;4.80;;;21.10;68.60;;;;;;5023636;28;20052;-76
2022/05/14 13:02:57;;;;;;;16.40;4.20;;;21.10;68.50;;;;;;5009530;28;20460;-74
2022/05/14 13:05:31;;;;;;;17.92;4.68;;;21.00;69.50;;;;;;4997162;28;20510;-76
2022/05/14 13:08:22;;;;;;;15.63;4.38;;;20.90;70.50;;;;;;5005361;28;20466;-76
2022/05/14 13:10:56;;;;;;;17.70;4.38;;;20.80;68.00;;;;;;5028363;28;20388;-76